LTFH

Samsun-Çarşamba Airport

Airport
ICAO code
LTFH
IATA Code
SZF
Summary
ICAO Region
EUR
ICAO Territory
Location

Samsun,

Serving
Samsun
Elevation
16 ft
Coordinates
41° 15' 23" N , 36° 33' 14" E
Metar
LTFH 201650Z 32018KT 9999 SCT030 BKN100 16/12 Q1004 NOSIG

Runways

Designator Length Width Surface Rops
13/31 3000 45 CON Yes/Yes

Airport map

Aerial View

SKYbrary Partners:

Safety knowledge contributed by: